createdAt,value
2022-09-21T00:01:30.220Z,99435.63
2022-09-21T00:04:02.032Z,99428.47
2022-09-21T00:06:32.262Z,99431.22
2022-09-21T00:08:59.844Z,99425.13
2022-09-21T00:11:30.513Z,99432.28
2022-09-21T00:14:04.615Z,99428.47
2022-09-21T00:16:32.413Z,99429.31
2022-09-21T00:19:00.449Z,99430.97
2022-09-21T00:21:28.343Z,99427.88
2022-09-21T00:23:55.705Z,99428.69
2022-09-21T00:26:26.194Z,99432.28
2022-09-21T00:29:04.359Z,99423.84
2022-09-21T00:31:32.890Z,99410.19
2022-09-21T00:34:01.042Z,99415.66
2022-09-21T00:36:28.929Z,99412.69
2022-09-21T00:39:01.036Z,99415.19
2022-09-21T00:41:31.457Z,99413.03
2022-09-21T00:44:21.060Z,99413.28
2022-09-21T00:46:52.586Z,99410.31
2022-09-21T00:49:21.252Z,99416.59
2022-09-21T00:51:49.762Z,99409.50
2022-09-21T00:54:30.274Z,99405.56
2022-09-21T00:57:03.129Z,99402.59
2022-09-21T00:59:34.354Z,99407.47
2022-09-21T01:02:01.984Z,99419.44
2022-09-21T01:04:29.351Z,99414.81
2022-09-21T01:07:00.895Z,99420.28
2022-09-21T01:09:28.931Z,99419.09
2022-09-21T01:12:18.501Z,99409.00
2022-09-21T01:14:54.731Z,99426.44
2022-09-21T01:17:43.613Z,99421.81
2022-09-21T01:20:40.330Z,99423.72
2022-09-21T01:23:47.830Z,99424.78
2022-09-21T01:26:57.465Z,99422.66
2022-09-21T01:30:00.326Z,99421.81
2022-09-21T01:32:57.650Z,99416.78
2022-09-21T01:35:38.155Z,99423.34
2022-09-21T01:38:24.661Z,99425.47
2022-09-21T01:41:03.076Z,99421.31
2022-09-21T01:43:43.540Z,99412.75
2022-09-21T01:46:17.573Z,99415.72
2022-09-21T01:48:52.415Z,99412.84
2022-09-21T01:51:22.122Z,99416.03
2022-09-21T01:54:02.450Z,99429.91
2022-09-21T01:56:46.649Z,99420.50
2022-09-21T01:59:21.970Z,99418.84
2022-09-21T02:02:20.546Z,99422.03
2022-09-21T02:04:47.859Z,99423.47
2022-09-21T02:07:17.756Z,99418.84
2022-09-21T02:09:47.131Z,99429.75
2022-09-21T02:12:18.898Z,99422.66
2022-09-21T02:14:47.150Z,99432.47
2022-09-21T02:17:54.677Z,99431.06
2022-09-21T02:20:32.577Z,99425.66
2022-09-21T02:23:34.742Z,99434.28
2022-09-21T02:26:34.127Z,99434.06
2022-09-21T02:29:27.659Z,99434.28
2022-09-21T02:32:09.759Z,99428.63
2022-09-21T02:35:08.257Z,99427.78
2022-09-21T02:37:55.580Z,99437.16
2022-09-21T02:40:41.669Z,99432.34
2022-09-21T02:43:33.424Z,99440.53
2022-09-21T02:46:15.648Z,99436.13
2022-09-21T02:48:56.975Z,99438.22
2022-09-21T02:51:35.469Z,99438.22
2022-09-21T02:54:06.806Z,99441.41
2022-09-21T02:56:35.301Z,99446.03
2022-09-21T02:59:05.266Z,99459.47
2022-09-21T03:01:33.953Z,99454.84
2022-09-21T03:04:01.531Z,99454.84
2022-09-21T03:06:29.017Z,99463.25
2022-09-21T03:08:57.931Z,99447.72
2022-09-21T03:11:25.776Z,99461.59
2022-09-21T03:13:53.224Z,99455.16
2022-09-21T03:16:20.552Z,99465.63
2022-09-21T03:18:47.813Z,99469.19
2022-09-21T03:21:15.048Z,99476.69
2022-09-21T03:23:42.312Z,99473.13
2022-09-21T03:26:09.655Z,99475.63
2022-09-21T03:28:36.858Z,99478.38
2022-09-21T03:31:04.152Z,99487.75
2022-09-21T03:33:31.576Z,99478.31
2022-09-21T03:35:59.544Z,99484.81
2022-09-21T03:38:27.035Z,99480.81
2022-09-21T03:40:58.183Z,99481.88
2022-09-21T03:43:25.966Z,99479.50
2022-09-21T03:45:54.003Z,99485.81
2022-09-21T03:48:22.282Z,99484.13
2022-09-21T03:50:49.658Z,99487.69
2022-09-21T03:53:17.459Z,99489.13
2022-09-21T03:55:44.698Z,99490.78
2022-09-21T03:58:12.044Z,99494.59
2022-09-21T04:00:39.375Z,99496.03
2022-09-21T04:03:06.763Z,99506.72
2022-09-21T04:05:34.292Z,99497.72
2022-09-21T04:08:02.312Z,99494.59
2022-09-21T04:10:33.138Z,99493.53
2022-09-21T04:13:04.465Z,99501.25
2022-09-21T04:15:32.614Z,99500.19
2022-09-21T04:17:59.868Z,99509.44
2022-09-21T04:20:27.341Z,99517.63
2022-09-21T04:22:54.587Z,99517.63
2022-09-21T04:25:21.876Z,99514.91
2022-09-21T04:27:49.118Z,99520.34
2022-09-21T04:30:17.861Z,99518.47
2022-09-21T04:32:45.548Z,99516.00
2022-09-21T04:35:12.763Z,99519.09
2022-09-21T04:37:39.994Z,99507.34
2022-09-21T04:40:09.458Z,99515.16
2022-09-21T04:42:37.155Z,99525.22
2022-09-21T04:45:05.339Z,99524.41
2022-09-21T04:47:32.842Z,99525.44
2022-09-21T04:50:00.026Z,99521.66
2022-09-21T04:52:27.239Z,99511.81
2022-09-21T04:54:54.421Z,99512.41
2022-09-21T04:57:21.659Z,99521.19
2022-09-21T04:59:49.116Z,99516.00
2022-09-21T05:02:16.437Z,99516.00
2022-09-21T05:04:47.489Z,99518.25
2022-09-21T05:07:17.804Z,99520.97
2022-09-21T05:10:03.294Z,99526.81
2022-09-21T05:12:38.547Z,99533.13
2022-09-21T05:15:07.836Z,99534.16
2022-09-21T05:17:34.998Z,99532.28
2022-09-21T05:20:02.600Z,99538.56
2022-09-21T05:22:29.934Z,99539.41
2022-09-21T05:24:57.188Z,99536.31
2022-09-21T05:27:24.409Z,99539.47
2022-09-21T05:29:52.054Z,99546.16
2022-09-21T05:32:48.422Z,99545.72
2022-09-21T05:35:27.531Z,99543.56
2022-09-21T05:38:16.869Z,99540.41
2022-09-21T05:40:44.820Z,99545.41
2022-09-21T05:43:12.460Z,99538.88
2022-09-21T05:45:51.647Z,99547.66
2022-09-21T05:48:27.431Z,99547.44
2022-09-21T05:51:27.939Z,99551.38
2022-09-21T05:54:05.440Z,99556.59
2022-09-21T05:56:50.216Z,99553.44
2022-09-21T05:59:41.778Z,99554.28
2022-09-21T06:02:20.769Z,99550.44
2022-09-21T06:04:49.575Z,99550.22
2022-09-21T06:07:16.749Z,99554.16
2022-09-21T06:09:55.853Z,99552.16
2022-09-21T06:12:23.068Z,99547.47
2022-09-21T06:14:50.302Z,99547.16
2022-09-21T06:17:17.534Z,99550.63
2022-09-21T06:19:44.747Z,99546.13
2022-09-21T06:22:11.899Z,99548.16
2022-09-21T06:24:39.067Z,99550.16
2022-09-21T06:27:06.481Z,99556.63
2022-09-21T06:29:33.649Z,99557.22
2022-09-21T06:32:03.823Z,99557.22
2022-09-21T06:34:31.181Z,99553.19
2022-09-21T06:36:58.828Z,99566.38
2022-09-21T06:39:26.035Z,99563.66
2022-09-21T06:41:53.379Z,99564.72
2022-09-21T06:44:20.641Z,99571.41
2022-09-21T06:46:47.886Z,99572.22
2022-09-21T06:49:15.118Z,99577.69
2022-09-21T06:51:43.400Z,99578.28
2022-09-21T06:54:11.467Z,99574.25
2022-09-21T06:56:38.912Z,99577.97
2022-09-21T06:59:06.269Z,99581.66
2022-09-21T07:01:33.487Z,99580.13
2022-09-21T07:04:01.150Z,99573.97
2022-09-21T07:06:29.452Z,99573.13
2022-09-21T07:11:43.881Z,99581.97
2022-09-21T07:14:11.096Z,99571.47
2022-09-21T07:16:38.280Z,99577.50
2022-09-21T07:19:13.056Z,99575.25
2022-09-21T07:21:40.363Z,99589.44
2022-09-21T07:24:11.908Z,99586.09
2022-09-21T07:26:40.040Z,99589.09
2022-09-21T07:29:07.481Z,99587.31
2022-09-21T07:31:35.272Z,99585.28
2022-09-21T07:34:02.627Z,99577.69
2022-09-21T07:36:29.842Z,99587.81
2022-09-21T07:38:57.028Z,99594.59
2022-09-21T07:41:24.197Z,99586.38
2022-09-21T07:43:51.463Z,99591.63
2022-09-21T07:46:18.890Z,99584.59
2022-09-21T07:48:46.244Z,99591.03
2022-09-21T07:51:15.608Z,99586.47
2022-09-21T07:53:44.842Z,99588.25
2022-09-21T07:56:15.811Z,99585.16
2022-09-21T07:59:02.970Z,99586.34
2022-09-21T08:01:31.260Z,99584.28
2022-09-21T08:03:59.646Z,99585.72
2022-09-21T08:06:30.504Z,99591.19
2022-09-21T08:08:58.347Z,99590.72
2022-09-21T08:11:27.906Z,99594.03
2022-09-21T08:14:01.783Z,99598.44
2022-09-21T08:16:31.562Z,99591.06
2022-09-21T08:18:58.904Z,99588.31
2022-09-21T08:21:26.536Z,99591.66
2022-09-21T08:23:54.348Z,99599.63
2022-09-21T08:26:22.743Z,99599.97
2022-09-21T08:28:52.979Z,99602.25
2022-09-21T08:31:24.233Z,99607.47
2022-09-21T08:33:55.860Z,99602.31
2022-09-21T08:36:23.326Z,99601.84
2022-09-21T08:39:00.795Z,99612.56
2022-09-21T08:41:50.206Z,99615.06
2022-09-21T08:44:48.817Z,99615.16
2022-09-21T08:47:40.166Z,99612.78
2022-09-21T08:50:34.433Z,99618.09
2022-09-21T08:53:18.058Z,99612.38
2022-09-21T08:55:45.358Z,99614.06
2022-09-21T08:58:26.360Z,99612.50
2022-09-21T09:01:08.559Z,99611.78
2022-09-21T09:04:33.714Z,99609.63
2022-09-21T09:07:18.829Z,99598.63
2022-09-21T09:10:33.982Z,99603.06
2022-09-21T09:13:36.562Z,99605.06
2022-09-21T09:16:22.519Z,99607.91
2022-09-21T09:19:01.897Z,99597.25
2022-09-21T09:21:40.929Z,99590.72
2022-09-21T09:24:39.278Z,99588.63
2022-09-21T09:27:16.926Z,99585.72
2022-09-21T09:30:06.557Z,99588.31
2022-09-21T09:32:55.685Z,99583.16
2022-09-21T09:35:35.651Z,99585.41
2022-09-21T09:38:15.176Z,99580.41
2022-09-21T09:40:42.568Z,99576.09
2022-09-21T09:43:37.244Z,99570.34
2022-09-21T09:46:15.175Z,99572.28
2022-09-21T09:49:05.486Z,99572.28
2022-09-21T09:51:40.652Z,99567.94
2022-09-21T09:54:16.058Z,99571.66
2022-09-21T09:56:44.043Z,99567.09
2022-09-21T09:59:30.654Z,99563.94
2022-09-21T10:02:01.323Z,99564.41
2022-09-21T10:04:28.952Z,99559.31
2022-09-21T10:06:56.459Z,99566.78
2022-09-21T10:09:35.657Z,99563.03
2022-09-21T10:12:24.062Z,99555.09
2022-09-21T10:14:56.676Z,99557.84
2022-09-21T10:17:25.763Z,99555.38
2022-09-21T10:20:06.468Z,99552.56
2022-09-21T10:22:33.799Z,99545.41
2022-09-21T10:25:06.076Z,99539.91
2022-09-21T10:27:43.626Z,99544.03
2022-09-21T10:30:38.837Z,99549.63
2022-09-21T10:33:21.065Z,99551.84
2022-09-21T10:35:53.372Z,99548.28
2022-09-21T10:38:29.175Z,99559.28
2022-09-21T10:40:56.357Z,99548.72
2022-09-21T10:43:39.853Z,99555.78
2022-09-21T10:46:10.030Z,99561.72
2022-09-21T10:48:37.844Z,99546.25
2022-09-21T10:51:05.485Z,99563.75
2022-09-21T10:53:37.544Z,99553.47
2022-09-21T10:56:18.934Z,99558.03
2022-09-21T10:59:13.698Z,99558.44
2022-09-21T11:01:52.174Z,99559.72
2022-09-21T11:04:45.805Z,99567.63
2022-09-21T11:07:24.268Z,99561.19
2022-09-21T11:10:19.771Z,99558.44
2022-09-21T11:13:30.422Z,99558.78
2022-09-21T11:16:04.639Z,99552.53
2022-09-21T11:18:54.796Z,99548.78
2022-09-21T11:21:53.240Z,99540.91
2022-09-21T11:24:52.226Z,99544.06
2022-09-21T11:27:28.110Z,99537.31
2022-09-21T11:30:16.633Z,99544.69
2022-09-21T11:32:57.815Z,99545.91
2022-09-21T11:36:04.832Z,99538.06
2022-09-21T11:39:03.694Z,99533.78
2022-09-21T11:41:50.079Z,99539.03
2022-09-21T11:44:46.194Z,99540.72
2022-09-21T11:47:44.192Z,99545.63
2022-09-21T11:50:31.147Z,99531.81
2022-09-21T11:53:19.789Z,99542.22
2022-09-21T11:55:52.842Z,99532.56
2022-09-21T11:58:59.132Z,99537.75
2022-09-21T12:01:51.632Z,99529.75
2022-09-21T12:04:21.640Z,99536.31
2022-09-21T12:07:32.891Z,99542.72
2022-09-21T12:10:29.141Z,99526.88
2022-09-21T12:13:27.524Z,99524.53
2022-09-21T12:16:14.249Z,99522.94
2022-09-21T12:19:16.455Z,99526.31
2022-09-21T12:21:50.057Z,99523.72
2022-09-21T12:24:36.108Z,99524.34
2022-09-21T12:27:20.530Z,99523.63
2022-09-21T12:29:54.266Z,99517.03
2022-09-21T12:32:54.260Z,99517.59
2022-09-21T12:36:14.878Z,99515.94
2022-09-21T12:38:54.245Z,99508.47
2022-09-21T12:41:55.640Z,99525.75
2022-09-21T12:44:52.597Z,99522.66
2022-09-21T12:47:44.497Z,99509.19
2022-09-21T12:50:50.141Z,99514.09
2022-09-21T12:53:27.482Z,99522.09
2022-09-21T12:55:54.854Z,99530.66
2022-09-21T12:58:45.841Z,99524.34
2022-09-21T13:01:30.719Z,99527.38
2022-09-21T13:04:18.997Z,99526.84
2022-09-21T13:07:15.323Z,99532.59
2022-09-21T13:09:45.360Z,99530.59
2022-09-21T13:12:28.153Z,99536.38
2022-09-21T13:15:13.296Z,99528.59
2022-09-21T13:17:40.997Z,99537.06
2022-09-21T13:20:19.966Z,99522.75
2022-09-21T13:22:49.046Z,99528.22
2022-09-21T13:25:27.396Z,99533.25
2022-09-21T13:28:13.558Z,99518.97
2022-09-21T13:30:47.606Z,99519.56
2022-09-21T13:33:20.729Z,99527.75
2022-09-21T13:35:48.087Z,99521.41
2022-09-21T13:38:54.385Z,99523.56
2022-09-21T13:41:45.444Z,99526.59
2022-09-21T13:44:41.909Z,99522.44
2022-09-21T13:47:12.172Z,99520.78
2022-09-21T13:49:45.642Z,99522.09
2022-09-21T13:52:15.872Z,99522.63
2022-09-21T13:54:46.164Z,99524.75
2022-09-21T13:57:28.079Z,99526.31
2022-09-21T14:00:20.005Z,99521.81
2022-09-21T14:03:04.348Z,99514.09
2022-09-21T14:05:47.154Z,99517.09
2022-09-21T14:08:17.089Z,99519.84
2022-09-21T14:11:23.933Z,99512.44
2022-09-21T14:14:14.628Z,99517.31
2022-09-21T14:16:47.710Z,99515.09
2022-09-21T14:19:17.847Z,99523.41
2022-09-21T14:22:07.438Z,99516.84
2022-09-21T14:24:42.998Z,99520.75
2022-09-21T14:27:34.683Z,99516.41
2022-09-21T14:30:21.820Z,99518.63
2022-09-21T14:33:20.353Z,99526.38
2022-09-21T14:35:48.931Z,99524.78
2022-09-21T14:38:41.963Z,99509.72
2022-09-21T14:41:16.438Z,99516.88
2022-09-21T14:43:54.773Z,99518.53
2022-09-21T14:46:30.990Z,99524.03
2022-09-21T14:49:31.297Z,99519.34
2022-09-21T14:52:38.246Z,99514.13
2022-09-21T14:55:41.819Z,99516.28
2022-09-21T14:58:52.210Z,99512.41
2022-09-21T15:01:35.336Z,99524.75
2022-09-21T15:04:53.791Z,99519.47
2022-09-21T15:08:17.443Z,99520.22
2022-09-21T15:11:12.970Z,99510.31
2022-09-21T15:13:47.664Z,99508.66
2022-09-21T15:16:45.799Z,99512.22
2022-09-21T15:19:30.212Z,99511.41
2022-09-21T15:22:22.627Z,99514.66
2022-09-21T15:24:55.656Z,99508.84
2022-09-21T15:27:33.608Z,99511.59
2022-09-21T15:30:05.611Z,99511.84
2022-09-21T15:32:42.650Z,99518.69
2022-09-21T15:35:16.180Z,99521.66
2022-09-21T15:37:45.811Z,99511.19
2022-09-21T15:40:27.948Z,99520.50
2022-09-21T15:43:21.300Z,99509.13
2022-09-21T15:46:13.532Z,99519.56
2022-09-21T15:48:42.479Z,99517.31
2022-09-21T15:51:47.183Z,99525.25
2022-09-21T15:54:34.286Z,99522.41
2022-09-21T15:57:22.395Z,99519.06
2022-09-21T15:59:49.621Z,99512.41
2022-09-21T16:02:25.459Z,99521.25
2022-09-21T16:04:53.065Z,99520.94
2022-09-21T16:07:31.900Z,99530.25
2022-09-21T16:10:00.030Z,99529.66
2022-09-21T16:12:27.113Z,99531.00
2022-09-21T16:14:54.679Z,99531.22
2022-09-21T16:17:28.716Z,99532.31
2022-09-21T16:19:56.421Z,99538.59
2022-09-21T16:22:47.497Z,99542.41
2022-09-21T16:25:37.691Z,99545.38
2022-09-21T16:28:30.792Z,99542.06
2022-09-21T16:30:59.244Z,99551.88
2022-09-21T16:34:18.580Z,99552.38
2022-09-21T16:36:46.283Z,99553.47
2022-09-21T16:39:16.531Z,99558.97
2022-09-21T16:42:02.067Z,99555.63
2022-09-21T16:44:34.419Z,99555.63
2022-09-21T16:47:03.921Z,99554.53
2022-09-21T16:49:34.915Z,99561.69
2022-09-21T16:52:02.408Z,99560.28
2022-09-21T16:54:30.314Z,99559.44
2022-09-21T16:57:01.305Z,99559.44
2022-09-21T16:59:29.289Z,99551.47
2022-09-21T17:01:59.089Z,99550.63
2022-09-21T17:04:31.343Z,99551.13
2022-09-21T17:06:59.226Z,99549.47
2022-09-21T17:09:38.972Z,99551.38
2022-09-21T17:12:09.763Z,99557.69
2022-09-21T17:14:42.930Z,99557.94
2022-09-21T17:17:23.298Z,99566.16
2022-09-21T17:19:53.781Z,99564.50
2022-09-21T17:22:21.994Z,99576.31
2022-09-21T17:24:52.281Z,99582.06
2022-09-21T17:27:26.792Z,99574.06
2022-09-21T17:29:55.302Z,99584.44
2022-09-21T17:32:24.729Z,99584.72
2022-09-21T17:35:01.920Z,99580.53
2022-09-21T17:37:29.478Z,99587.59
2022-09-21T17:39:56.689Z,99590.00
2022-09-21T17:42:25.869Z,99595.41
2022-09-21T17:45:02.122Z,99599.38
2022-09-21T17:47:33.263Z,99605.81
2022-09-21T17:50:12.830Z,99602.97
2022-09-21T17:53:01.274Z,99605.63
2022-09-21T17:55:28.879Z,99596.47
2022-09-21T17:58:42.049Z,99604.59
2022-09-21T18:01:43.573Z,99610.19
2022-09-21T18:04:11.329Z,99602.97
2022-09-21T18:06:38.952Z,99592.72
2022-09-21T18:09:07.003Z,99600.25
2022-09-21T18:12:07.488Z,99603.97
2022-09-21T18:14:53.033Z,99608.47
2022-09-21T18:17:37.307Z,99623.16
2022-09-21T18:20:43.273Z,99622.81
2022-09-21T18:23:52.784Z,99631.50
2022-09-21T18:26:20.863Z,99626.72
2022-09-21T18:28:57.135Z,99626.63
2022-09-21T18:31:58.035Z,99627.34
2022-09-21T18:35:00.062Z,99628.66
2022-09-21T18:38:05.316Z,99639.03
2022-09-21T18:40:44.440Z,99642.25
2022-09-21T18:43:47.682Z,99638.06
2022-09-21T18:46:38.337Z,99645.91
2022-09-21T18:49:43.311Z,99645.09
2022-09-21T18:53:09.572Z,99642.56
2022-09-21T18:55:37.560Z,99652.47
2022-09-21T18:58:05.310Z,99656.75
2022-09-21T19:00:34.760Z,99654.63
2022-09-21T19:03:17.666Z,99654.63
2022-09-21T19:06:22.271Z,99650.78
2022-09-21T19:09:22.934Z,99649.72
2022-09-21T19:12:13.386Z,99639.84
2022-09-21T19:14:57.472Z,99643.78
2022-09-21T19:17:53.605Z,99651.53
2022-09-21T19:20:57.033Z,99637.56
2022-09-21T19:23:51.853Z,99634.84
2022-09-21T19:26:36.045Z,99632.94
2022-09-21T19:29:35.337Z,99624.72
2022-09-21T19:32:02.665Z,99619.72
2022-09-21T19:34:30.229Z,99614.47
2022-09-21T19:37:00.912Z,99610.31
2022-09-21T19:39:29.955Z,99612.00
2022-09-21T19:42:36.097Z,99621.50
2022-09-21T19:45:23.212Z,99615.69
2022-09-21T19:48:05.064Z,99622.47
2022-09-21T19:50:46.795Z,99629.50
2022-09-21T19:53:34.526Z,99629.38
2022-09-21T19:56:21.034Z,99628.16
2022-09-21T19:59:06.980Z,99621.28
2022-09-21T20:01:37.699Z,99620.66
2022-09-21T20:04:06.826Z,99622.56
2022-09-21T20:06:48.087Z,99616.50
2022-09-21T20:09:29.287Z,99620.88
2022-09-21T20:12:34.269Z,99615.69
2022-09-21T20:15:12.419Z,99614.00
2022-09-21T20:18:19.285Z,99611.13
2022-09-21T20:20:46.618Z,99616.25
2022-09-21T20:23:14.402Z,99624.06
2022-09-21T20:25:57.856Z,99624.53
2022-09-21T20:28:26.209Z,99630.94
2022-09-21T20:30:56.493Z,99634.53
2022-09-21T20:33:24.812Z,99633.09
2022-09-21T20:35:55.427Z,99641.75
2022-09-21T20:38:23.519Z,99640.34
2022-09-21T20:40:51.685Z,99640.56
2022-09-21T20:43:19.618Z,99639.34
2022-09-21T20:45:49.407Z,99642.09
2022-09-21T20:48:20.101Z,99641.16
2022-09-21T20:50:49.400Z,99638.28
2022-09-21T20:53:19.214Z,99634.06
2022-09-21T20:55:55.610Z,99639.81
2022-09-21T20:58:23.938Z,99645.28
2022-09-21T21:00:56.412Z,99646.34
2022-09-21T21:03:25.923Z,99642.63
2022-09-21T21:05:53.166Z,99636.91
2022-09-21T21:08:20.412Z,99632.50
2022-09-21T21:10:47.706Z,99634.88
2022-09-21T21:13:14.986Z,99631.31
2022-09-21T21:15:42.207Z,99639.78
2022-09-21T21:18:12.414Z,99631.16
2022-09-21T21:20:41.047Z,99633.91
2022-09-21T21:23:08.724Z,99639.84
2022-09-21T21:25:36.084Z,99636.75
2022-09-21T21:28:03.971Z,99644.09
2022-09-21T21:30:31.580Z,99636.59
2022-09-21T21:32:58.836Z,99642.53
2022-09-21T21:35:26.195Z,99638.97
2022-09-21T21:37:53.386Z,99632.19
2022-09-21T21:40:20.917Z,99628.03
2022-09-21T21:42:48.597Z,99629.34
2022-09-21T21:45:15.955Z,99627.88
2022-09-21T21:47:43.219Z,99628.94
2022-09-21T21:50:11.545Z,99620.16
2022-09-21T21:52:38.901Z,99621.69
2022-09-21T21:55:07.895Z,99617.50
2022-09-21T21:57:35.099Z,99622.13
2022-09-21T22:00:04.158Z,99613.56
2022-09-21T22:02:32.430Z,99611.66
2022-09-21T22:04:59.747Z,99622.34
2022-09-21T22:07:26.954Z,99616.06
2022-09-21T22:09:54.283Z,99618.19
2022-09-21T22:12:22.162Z,99623.88
2022-09-21T22:14:49.539Z,99620.78
2022-09-21T22:17:16.733Z,99621.25
2022-09-21T22:19:44.066Z,99618.94
2022-09-21T22:22:11.288Z,99615.38
2022-09-21T22:24:38.444Z,99618.84
2022-09-21T22:27:05.705Z,99613.38
2022-09-21T22:29:32.929Z,99616.31
2022-09-21T22:32:00.600Z,99611.69
2022-09-21T22:34:27.814Z,99615.84
2022-09-21T22:36:56.405Z,99612.06
2022-09-21T22:39:23.609Z,99610.38
2022-09-21T22:41:50.866Z,99612.28
2022-09-21T22:44:18.046Z,99612.28
2022-09-21T22:46:45.208Z,99603.25
2022-09-21T22:49:12.407Z,99592.09
2022-09-21T22:51:39.625Z,99584.13
2022-09-21T22:54:06.902Z,99583.31
2022-09-21T22:56:34.621Z,99588.53
2022-09-21T22:59:04.867Z,99575.56
2022-09-21T23:01:36.599Z,99585.66
2022-09-21T23:04:08.670Z,99585.91
2022-09-21T23:06:39.115Z,99582.53
2022-09-21T23:09:13.672Z,99575.88
2022-09-21T23:11:43.601Z,99572.09
2022-09-21T23:14:15.319Z,99573.97
2022-09-21T23:16:45.450Z,99578.00
2022-09-21T23:19:16.217Z,99574.44
2022-09-21T23:21:46.801Z,99567.53
2022-09-21T23:24:14.051Z,99567.16
2022-09-21T23:26:41.610Z,99565.09
2022-09-21T23:29:15.119Z,99567.84
2022-09-21T23:31:45.461Z,99572.25
2022-09-21T23:34:14.516Z,99581.94
2022-09-21T23:36:42.786Z,99590.38
2022-09-21T23:39:13.474Z,99578.84
2022-09-21T23:41:40.839Z,99577.16
2022-09-21T23:44:08.439Z,99583.94
2022-09-21T23:46:38.476Z,99584.16
2022-09-21T23:49:06.269Z,99586.03
2022-09-21T23:51:33.603Z,99589.63
2022-09-21T23:54:01.557Z,99595.91
2022-09-21T23:56:30.137Z,99588.78
2022-09-21T23:58:57.752Z,99587.34
